sensor_id;sensor_type;location;lat;lon;timestamp;temperature;humidity
3788;DHT22;1909;53.046;8.276;2022-10-16T00:01:49;13.70;99.90
3788;DHT22;1909;53.046;8.276;2022-10-16T00:04:16;13.70;99.90
3788;DHT22;1909;53.046;8.276;2022-10-16T00:06:42;13.70;99.90
3788;DHT22;1909;53.046;8.276;2022-10-16T00:09:09;13.70;99.90
3788;DHT22;1909;53.046;8.276;2022-10-16T00:11:38;13.60;99.90
3788;DHT22;1909;53.046;8.276;2022-10-16T00:14:07;13.60;99.90
3788;DHT22;1909;53.046;8.276;2022-10-16T00:16:36;13.70;99.90
3788;DHT22;1909;53.046;8.276;2022-10-16T00:19:03;13.60;99.90
3788;DHT22;1909;53.046;8.276;2022-10-16T00:21:31;13.50;99.90
3788;DHT22;1909;53.046;8.276;2022-10-16T00:24:00;13.50;99.90
3788;DHT22;1909;53.046;8.276;2022-10-16T00:26:29;13.70;99.90
3788;DHT22;1909;53.046;8.276;2022-10-16T00:28:56;13.70;99.90
3788;DHT22;1909;53.046;8.276;2022-10-16T00:31:23;13.60;99.90
3788;DHT22;1909;53.046;8.276;2022-10-16T00:33:52;13.50;99.90
3788;DHT22;1909;53.046;8.276;2022-10-16T00:36:21;13.50;99.90
3788;DHT22;1909;53.046;8.276;2022-10-16T00:38:50;13.60;99.90
3788;DHT22;1909;53.046;8.276;2022-10-16T00:41:18;13.50;99.90
3788;DHT22;1909;53.046;8.276;2022-10-16T00:43:46;13.60;99.90
3788;DHT22;1909;53.046;8.276;2022-10-16T00:46:16;13.60;99.90
3788;DHT22;1909;53.046;8.276;2022-10-16T00:48:47;13.50;99.90
3788;DHT22;1909;53.046;8.276;2022-10-16T00:51:18;13.40;99.90
3788;DHT22;1909;53.046;8.276;2022-10-16T00:53:46;13.50;99.90
3788;DHT22;1909;53.046;8.276;2022-10-16T00:56:13;13.40;99.90
3788;DHT22;1909;53.046;8.276;2022-10-16T00:58:39;13.40;99.90
3788;DHT22;1909;53.046;8.276;2022-10-16T01:01:06;13.40;99.90
3788;DHT22;1909;53.046;8.276;2022-10-16T01:03:35;13.40;99.90
3788;DHT22;1909;53.046;8.276;2022-10-16T01:06:19;13.40;99.90
3788;DHT22;1909;53.046;8.276;2022-10-16T01:08:57;13.40;99.90
3788;DHT22;1909;53.046;8.276;2022-10-16T01:11:30;13.40;99.90
3788;DHT22;1909;53.046;8.276;2022-10-16T01:14:04;13.30;99.90
3788;DHT22;1909;53.046;8.276;2022-10-16T01:16:35;13.40;99.90
3788;DHT22;1909;53.046;8.276;2022-10-16T01:19:11;13.30;99.90
3788;DHT22;1909;53.046;8.276;2022-10-16T01:21:43;13.10;99.90
3788;DHT22;1909;53.046;8.276;2022-10-16T01:24:17;13.20;99.90
3788;DHT22;1909;53.046;8.276;2022-10-16T01:27:03;13.30;99.90
3788;DHT22;1909;53.046;8.276;2022-10-16T01:29:33;13.20;99.90
3788;DHT22;1909;53.046;8.276;2022-10-16T01:32:07;13.20;99.90
3788;DHT22;1909;53.046;8.276;2022-10-16T01:34:40;13.20;99.90
3788;DHT22;1909;53.046;8.276;2022-10-16T01:37:12;13.20;99.90
3788;DHT22;1909;53.046;8.276;2022-10-16T01:39:42;13.20;99.90
3788;DHT22;1909;53.046;8.276;2022-10-16T01:42:15;13.10;99.90
3788;DHT22;1909;53.046;8.276;2022-10-16T01:44:44;13.10;99.90
3788;DHT22;1909;53.046;8.276;2022-10-16T01:47:13;13.00;99.90
3788;DHT22;1909;53.046;8.276;2022-10-16T01:49:41;13.10;99.90
3788;DHT22;1909;53.046;8.276;2022-10-16T01:52:12;13.10;99.90
3788;DHT22;1909;53.046;8.276;2022-10-16T01:54:41;13.00;99.90
3788;DHT22;1909;53.046;8.276;2022-10-16T01:57:10;13.10;99.90
3788;DHT22;1909;53.046;8.276;2022-10-16T01:59:43;13.00;99.90
3788;DHT22;1909;53.046;8.276;2022-10-16T02:02:11;13.00;99.90
3788;DHT22;1909;53.046;8.276;2022-10-16T02:04:43;13.00;99.90
3788;DHT22;1909;53.046;8.276;2022-10-16T02:07:12;13.00;99.90
3788;DHT22;1909;53.046;8.276;2022-10-16T02:09:39;13.00;99.90
3788;DHT22;1909;53.046;8.276;2022-10-16T02:12:11;13.00;99.90
3788;DHT22;1909;53.046;8.276;2022-10-16T02:14:41;13.10;99.90
3788;DHT22;1909;53.046;8.276;2022-10-16T02:17:13;13.00;99.90
3788;DHT22;1909;53.046;8.276;2022-10-16T02:19:40;13.00;99.90
3788;DHT22;1909;53.046;8.276;2022-10-16T02:22:10;13.00;99.90
3788;DHT22;1909;53.046;8.276;2022-10-16T02:24:42;13.00;99.90
3788;DHT22;1909;53.046;8.276;2022-10-16T02:27:13;12.90;99.90
3788;DHT22;1909;53.046;8.276;2022-10-16T02:29:49;13.00;99.90
3788;DHT22;1909;53.046;8.276;2022-10-16T02:32:21;12.90;99.90
3788;DHT22;1909;53.046;8.276;2022-10-16T02:34:50;12.90;99.90
3788;DHT22;1909;53.046;8.276;2022-10-16T02:37:18;12.90;99.90
3788;DHT22;1909;53.046;8.276;2022-10-16T02:39:45;13.20;99.90
3788;DHT22;1909;53.046;8.276;2022-10-16T02:42:12;12.90;99.90
3788;DHT22;1909;53.046;8.276;2022-10-16T02:44:39;13.00;99.90
3788;DHT22;1909;53.046;8.276;2022-10-16T02:47:07;13.00;99.90
3788;DHT22;1909;53.046;8.276;2022-10-16T02:49:34;12.90;99.90
3788;DHT22;1909;53.046;8.276;2022-10-16T02:52:00;12.90;99.90
3788;DHT22;1909;53.046;8.276;2022-10-16T02:54:27;13.00;99.90
3788;DHT22;1909;53.046;8.276;2022-10-16T02:56:54;13.00;99.90
3788;DHT22;1909;53.046;8.276;2022-10-16T02:59:21;12.90;99.90
3788;DHT22;1909;53.046;8.276;2022-10-16T03:01:47;13.00;99.90
3788;DHT22;1909;53.046;8.276;2022-10-16T03:04:15;12.90;99.90
3788;DHT22;1909;53.046;8.276;2022-10-16T03:06:42;12.90;99.90
3788;DHT22;1909;53.046;8.276;2022-10-16T03:09:09;12.80;99.90
3788;DHT22;1909;53.046;8.276;2022-10-16T03:11:35;12.80;99.90
3788;DHT22;1909;53.046;8.276;2022-10-16T03:14:02;12.90;99.90
3788;DHT22;1909;53.046;8.276;2022-10-16T03:16:29;12.90;99.90
3788;DHT22;1909;53.046;8.276;2022-10-16T03:18:56;12.80;99.90
3788;DHT22;1909;53.046;8.276;2022-10-16T03:21:24;12.90;99.90
3788;DHT22;1909;53.046;8.276;2022-10-16T03:23:50;12.90;99.90
3788;DHT22;1909;53.046;8.276;2022-10-16T03:26:17;12.80;99.90
3788;DHT22;1909;53.046;8.276;2022-10-16T03:28:44;12.80;99.90
3788;DHT22;1909;53.046;8.276;2022-10-16T03:31:10;12.80;99.90
3788;DHT22;1909;53.046;8.276;2022-10-16T03:33:37;12.80;99.90
3788;DHT22;1909;53.046;8.276;2022-10-16T03:36:04;12.80;99.90
3788;DHT22;1909;53.046;8.276;2022-10-16T03:38:32;12.90;99.90
3788;DHT22;1909;53.046;8.276;2022-10-16T03:40:59;12.80;99.90
3788;DHT22;1909;53.046;8.276;2022-10-16T03:43:26;12.80;99.90
3788;DHT22;1909;53.046;8.276;2022-10-16T03:45:52;12.70;99.90
3788;DHT22;1909;53.046;8.276;2022-10-16T03:48:19;12.70;99.90
3788;DHT22;1909;53.046;8.276;2022-10-16T03:50:46;12.80;99.90
3788;DHT22;1909;53.046;8.276;2022-10-16T03:53:14;12.80;99.90
3788;DHT22;1909;53.046;8.276;2022-10-16T03:55:42;12.70;99.90
3788;DHT22;1909;53.046;8.276;2022-10-16T03:58:09;12.70;99.90
3788;DHT22;1909;53.046;8.276;2022-10-16T04:00:40;12.60;99.90
3788;DHT22;1909;53.046;8.276;2022-10-16T04:03:06;12.60;99.90
3788;DHT22;1909;53.046;8.276;2022-10-16T04:05:33;12.60;99.90
3788;DHT22;1909;53.046;8.276;2022-10-16T04:08:00;12.60;99.90
3788;DHT22;1909;53.046;8.276;2022-10-16T04:10:26;12.60;99.90
3788;DHT22;1909;53.046;8.276;2022-10-16T04:12:54;12.50;99.90
3788;DHT22;1909;53.046;8.276;2022-10-16T04:15:21;12.60;99.90
3788;DHT22;1909;53.046;8.276;2022-10-16T04:17:48;12.50;99.90
3788;DHT22;1909;53.046;8.276;2022-10-16T04:20:15;12.70;99.90
3788;DHT22;1909;53.046;8.276;2022-10-16T04:22:42;12.70;99.90
3788;DHT22;1909;53.046;8.276;2022-10-16T04:25:10;12.60;99.90
3788;DHT22;1909;53.046;8.276;2022-10-16T04:27:37;12.50;99.90
3788;DHT22;1909;53.046;8.276;2022-10-16T04:30:06;12.60;99.90
3788;DHT22;1909;53.046;8.276;2022-10-16T04:32:33;12.60;99.90
3788;DHT22;1909;53.046;8.276;2022-10-16T04:35:00;12.50;99.90
3788;DHT22;1909;53.046;8.276;2022-10-16T04:37:27;12.60;99.90
3788;DHT22;1909;53.046;8.276;2022-10-16T04:39:54;12.60;99.90
3788;DHT22;1909;53.046;8.276;2022-10-16T04:42:21;12.60;99.90
3788;DHT22;1909;53.046;8.276;2022-10-16T04:44:47;12.60;99.90
3788;DHT22;1909;53.046;8.276;2022-10-16T04:47:16;12.60;99.90
3788;DHT22;1909;53.046;8.276;2022-10-16T04:49:42;12.60;99.90
3788;DHT22;1909;53.046;8.276;2022-10-16T04:52:09;12.60;99.90
3788;DHT22;1909;53.046;8.276;2022-10-16T04:54:36;12.60;99.90
3788;DHT22;1909;53.046;8.276;2022-10-16T04:57:02;12.60;99.90
3788;DHT22;1909;53.046;8.276;2022-10-16T04:59:30;12.50;99.90
3788;DHT22;1909;53.046;8.276;2022-10-16T05:01:57;12.60;99.90
3788;DHT22;1909;53.046;8.276;2022-10-16T05:04:25;12.60;99.90
3788;DHT22;1909;53.046;8.276;2022-10-16T05:06:51;12.50;99.90
3788;DHT22;1909;53.046;8.276;2022-10-16T05:09:18;12.50;99.90
3788;DHT22;1909;53.046;8.276;2022-10-16T05:11:45;12.50;99.90
3788;DHT22;1909;53.046;8.276;2022-10-16T05:14:11;12.50;99.90
3788;DHT22;1909;53.046;8.276;2022-10-16T05:16:38;12.50;99.90
3788;DHT22;1909;53.046;8.276;2022-10-16T05:19:05;12.50;99.90
3788;DHT22;1909;53.046;8.276;2022-10-16T05:21:33;12.50;99.90
3788;DHT22;1909;53.046;8.276;2022-10-16T05:23:59;12.50;99.90
3788;DHT22;1909;53.046;8.276;2022-10-16T05:26:26;12.50;99.90
3788;DHT22;1909;53.046;8.276;2022-10-16T05:28:53;12.60;99.90
3788;DHT22;1909;53.046;8.276;2022-10-16T05:31:19;12.50;99.90
3788;DHT22;1909;53.046;8.276;2022-10-16T05:33:46;12.50;99.90
3788;DHT22;1909;53.046;8.276;2022-10-16T05:36:14;12.50;99.90
3788;DHT22;1909;53.046;8.276;2022-10-16T05:38:42;12.50;99.90
3788;DHT22;1909;53.046;8.276;2022-10-16T05:41:10;12.50;99.90
3788;DHT22;1909;53.046;8.276;2022-10-16T05:43:36;12.50;99.90
3788;DHT22;1909;53.046;8.276;2022-10-16T05:46:04;12.50;99.90
3788;DHT22;1909;53.046;8.276;2022-10-16T05:48:32;12.50;99.90
3788;DHT22;1909;53.046;8.276;2022-10-16T05:50:59;12.40;99.90
3788;DHT22;1909;53.046;8.276;2022-10-16T05:53:27;12.40;99.90
3788;DHT22;1909;53.046;8.276;2022-10-16T05:55:56;12.50;99.90
3788;DHT22;1909;53.046;8.276;2022-10-16T05:58:23;12.50;99.90
3788;DHT22;1909;53.046;8.276;2022-10-16T06:00:54;12.50;99.90
3788;DHT22;1909;53.046;8.276;2022-10-16T06:03:21;12.50;99.90
3788;DHT22;1909;53.046;8.276;2022-10-16T06:05:48;12.50;99.90
3788;DHT22;1909;53.046;8.276;2022-10-16T06:08:15;12.50;99.90
3788;DHT22;1909;53.046;8.276;2022-10-16T06:10:42;12.50;99.90
3788;DHT22;1909;53.046;8.276;2022-10-16T06:13:10;12.60;99.90
3788;DHT22;1909;53.046;8.276;2022-10-16T06:15:37;12.50;99.90
3788;DHT22;1909;53.046;8.276;2022-10-16T06:18:04;12.50;99.90
3788;DHT22;1909;53.046;8.276;2022-10-16T06:20:31;12.50;99.90
3788;DHT22;1909;53.046;8.276;2022-10-16T06:22:58;12.40;99.90
3788;DHT22;1909;53.046;8.276;2022-10-16T06:25:24;12.40;99.90
3788;DHT22;1909;53.046;8.276;2022-10-16T06:27:51;12.50;99.90
3788;DHT22;1909;53.046;8.276;2022-10-16T06:30:19;12.50;99.90
3788;DHT22;1909;53.046;8.276;2022-10-16T06:32:46;12.40;99.90
3788;DHT22;1909;53.046;8.276;2022-10-16T06:35:13;12.50;99.90
3788;DHT22;1909;53.046;8.276;2022-10-16T06:37:39;12.40;99.90
3788;DHT22;1909;53.046;8.276;2022-10-16T06:40:07;12.40;99.90
3788;DHT22;1909;53.046;8.276;2022-10-16T06:42:33;12.50;99.90
3788;DHT22;1909;53.046;8.276;2022-10-16T06:45:00;12.50;99.90
3788;DHT22;1909;53.046;8.276;2022-10-16T06:47:28;12.40;99.90
3788;DHT22;1909;53.046;8.276;2022-10-16T06:49:55;12.50;99.90
3788;DHT22;1909;53.046;8.276;2022-10-16T06:52:22;12.40;99.90
3788;DHT22;1909;53.046;8.276;2022-10-16T06:54:49;12.50;99.90
3788;DHT22;1909;53.046;8.276;2022-10-16T06:57:16;12.50;99.90
3788;DHT22;1909;53.046;8.276;2022-10-16T06:59:43;12.50;99.90
3788;DHT22;1909;53.046;8.276;2022-10-16T07:02:09;12.40;99.90
3788;DHT22;1909;53.046;8.276;2022-10-16T07:04:38;12.50;99.90
3788;DHT22;1909;53.046;8.276;2022-10-16T07:07:04;12.40;99.90
3788;DHT22;1909;53.046;8.276;2022-10-16T07:09:31;12.50;99.90
3788;DHT22;1909;53.046;8.276;2022-10-16T07:11:58;12.50;99.90
3788;DHT22;1909;53.046;8.276;2022-10-16T07:14:24;12.60;99.90
3788;DHT22;1909;53.046;8.276;2022-10-16T07:16:51;12.50;99.90
3788;DHT22;1909;53.046;8.276;2022-10-16T07:19:18;12.50;99.90
3788;DHT22;1909;53.046;8.276;2022-10-16T07:21:46;12.50;99.90
3788;DHT22;1909;53.046;8.276;2022-10-16T07:24:14;12.60;99.90
3788;DHT22;1909;53.046;8.276;2022-10-16T07:26:42;12.60;99.90
3788;DHT22;1909;53.046;8.276;2022-10-16T07:29:12;12.50;99.90
3788;DHT22;1909;53.046;8.276;2022-10-16T07:31:40;12.60;99.90
3788;DHT22;1909;53.046;8.276;2022-10-16T07:34:07;12.50;99.90
3788;DHT22;1909;53.046;8.276;2022-10-16T07:36:34;12.50;99.90
3788;DHT22;1909;53.046;8.276;2022-10-16T07:39:02;12.50;99.90
3788;DHT22;1909;53.046;8.276;2022-10-16T07:41:29;12.50;99.90
3788;DHT22;1909;53.046;8.276;2022-10-16T07:43:58;12.60;99.90
3788;DHT22;1909;53.046;8.276;2022-10-16T07:46:26;12.60;99.90
3788;DHT22;1909;53.046;8.276;2022-10-16T07:48:53;12.50;99.90
3788;DHT22;1909;53.046;8.276;2022-10-16T07:51:21;12.70;99.90
3788;DHT22;1909;53.046;8.276;2022-10-16T07:53:49;12.70;99.90
3788;DHT22;1909;53.046;8.276;2022-10-16T07:56:18;12.70;99.90
3788;DHT22;1909;53.046;8.276;2022-10-16T07:58:45;12.70;99.90
3788;DHT22;1909;53.046;8.276;2022-10-16T08:01:13;12.80;99.90
3788;DHT22;1909;53.046;8.276;2022-10-16T08:03:42;12.70;99.90
3788;DHT22;1909;53.046;8.276;2022-10-16T08:06:09;13.00;99.90
3788;DHT22;1909;53.046;8.276;2022-10-16T08:08:36;13.00;99.90
3788;DHT22;1909;53.046;8.276;2022-10-16T08:11:02;13.10;99.90
3788;DHT22;1909;53.046;8.276;2022-10-16T08:13:31;13.00;99.90
3788;DHT22;1909;53.046;8.276;2022-10-16T08:15:58;13.20;99.90
3788;DHT22;1909;53.046;8.276;2022-10-16T08:18:25;13.40;99.90
3788;DHT22;1909;53.046;8.276;2022-10-16T08:20:55;13.20;99.90
3788;DHT22;1909;53.046;8.276;2022-10-16T08:23:23;13.30;99.90
3788;DHT22;1909;53.046;8.276;2022-10-16T08:25:51;13.30;99.90
3788;DHT22;1909;53.046;8.276;2022-10-16T08:28:18;13.50;99.90
3788;DHT22;1909;53.046;8.276;2022-10-16T08:30:46;13.60;99.90
3788;DHT22;1909;53.046;8.276;2022-10-16T08:33:13;13.60;99.90
3788;DHT22;1909;53.046;8.276;2022-10-16T08:35:40;13.80;99.90
3788;DHT22;1909;53.046;8.276;2022-10-16T08:38:07;13.40;99.90
3788;DHT22;1909;53.046;8.276;2022-10-16T08:40:36;13.70;99.90
3788;DHT22;1909;53.046;8.276;2022-10-16T08:46:26;13.60;99.90
3788;DHT22;1909;53.046;8.276;2022-10-16T08:48:59;13.70;99.90
3788;DHT22;1909;53.046;8.276;2022-10-16T08:51:29;13.90;99.90
3788;DHT22;1909;53.046;8.276;2022-10-16T08:53:58;14.00;99.90
3788;DHT22;1909;53.046;8.276;2022-10-16T08:56:26;13.80;99.90
3788;DHT22;1909;53.046;8.276;2022-10-16T08:58:54;14.00;99.90
3788;DHT22;1909;53.046;8.276;2022-10-16T09:01:23;14.00;99.90
3788;DHT22;1909;53.046;8.276;2022-10-16T09:04:37;14.10;99.90
3788;DHT22;1909;53.046;8.276;2022-10-16T09:07:16;14.30;99.90
3788;DHT22;1909;53.046;8.276;2022-10-16T09:09:56;14.30;99.90
3788;DHT22;1909;53.046;8.276;2022-10-16T09:12:31;14.30;99.90
3788;DHT22;1909;53.046;8.276;2022-10-16T09:15:05;14.20;99.90
3788;DHT22;1909;53.046;8.276;2022-10-16T09:17:41;14.10;99.90
3788;DHT22;1909;53.046;8.276;2022-10-16T09:20:22;14.40;99.90
3788;DHT22;1909;53.046;8.276;2022-10-16T09:22:56;14.50;99.90
3788;DHT22;1909;53.046;8.276;2022-10-16T09:25:26;14.50;99.90
3788;DHT22;1909;53.046;8.276;2022-10-16T09:27:54;14.30;99.90
3788;DHT22;1909;53.046;8.276;2022-10-16T09:30:21;14.20;99.90
3788;DHT22;1909;53.046;8.276;2022-10-16T09:32:52;14.10;99.90
3788;DHT22;1909;53.046;8.276;2022-10-16T09:35:22;14.20;99.90
3788;DHT22;1909;53.046;8.276;2022-10-16T09:37:54;14.40;99.90
3788;DHT22;1909;53.046;8.276;2022-10-16T09:40:26;14.50;99.90
3788;DHT22;1909;53.046;8.276;2022-10-16T09:43:01;14.90;99.90
3788;DHT22;1909;53.046;8.276;2022-10-16T09:45:29;14.60;99.90
3788;DHT22;1909;53.046;8.276;2022-10-16T09:47:57;14.70;99.90
3788;DHT22;1909;53.046;8.276;2022-10-16T09:50:25;15.00;99.90
3788;DHT22;1909;53.046;8.276;2022-10-16T09:53:08;14.50;99.90
3788;DHT22;1909;53.046;8.276;2022-10-16T09:55:36;14.60;99.90
3788;DHT22;1909;53.046;8.276;2022-10-16T09:58:13;14.90;99.90
3788;DHT22;1909;53.046;8.276;2022-10-16T10:00:41;15.70;99.90
3788;DHT22;1909;53.046;8.276;2022-10-16T10:03:11;15.00;99.90
3788;DHT22;1909;53.046;8.276;2022-10-16T10:05:39;15.20;99.90
3788;DHT22;1909;53.046;8.276;2022-10-16T10:08:06;15.50;99.90
3788;DHT22;1909;53.046;8.276;2022-10-16T10:10:41;14.90;99.90
3788;DHT22;1909;53.046;8.276;2022-10-16T10:13:17;15.30;99.90
3788;DHT22;1909;53.046;8.276;2022-10-16T10:15:44;15.30;99.90
3788;DHT22;1909;53.046;8.276;2022-10-16T10:18:17;15.40;99.90
3788;DHT22;1909;53.046;8.276;2022-10-16T10:20:45;15.30;99.90
3788;DHT22;1909;53.046;8.276;2022-10-16T10:23:21;15.30;99.90
3788;DHT22;1909;53.046;8.276;2022-10-16T10:25:52;15.10;99.90
3788;DHT22;1909;53.046;8.276;2022-10-16T10:28:38;15.30;99.90
3788;DHT22;1909;53.046;8.276;2022-10-16T10:31:13;15.80;99.90
3788;DHT22;1909;53.046;8.276;2022-10-16T10:33:47;15.40;99.90
3788;DHT22;1909;53.046;8.276;2022-10-16T10:36:30;15.40;99.90
3788;DHT22;1909;53.046;8.276;2022-10-16T10:39:00;15.60;99.90
3788;DHT22;1909;53.046;8.276;2022-10-16T10:44:50;16.00;99.90
3788;DHT22;1909;53.046;8.276;2022-10-16T10:47:27;16.00;99.90
3788;DHT22;1909;53.046;8.276;2022-10-16T10:50:05;16.00;99.90
3788;DHT22;1909;53.046;8.276;2022-10-16T10:52:51;15.60;99.90
3788;DHT22;1909;53.046;8.276;2022-10-16T10:55:25;16.00;99.90
3788;DHT22;1909;53.046;8.276;2022-10-16T10:58:10;15.50;99.90
3788;DHT22;1909;53.046;8.276;2022-10-16T11:00:47;16.20;99.90
3788;DHT22;1909;53.046;8.276;2022-10-16T11:03:27;17.00;99.90
3788;DHT22;1909;53.046;8.276;2022-10-16T11:06:04;16.30;99.90
3788;DHT22;1909;53.046;8.276;2022-10-16T11:08:36;16.50;99.90
3788;DHT22;1909;53.046;8.276;2022-10-16T11:11:11;16.50;99.90
3788;DHT22;1909;53.046;8.276;2022-10-16T11:13:45;16.40;99.90
3788;DHT22;1909;53.046;8.276;2022-10-16T11:16:19;16.20;99.90
3788;DHT22;1909;53.046;8.276;2022-10-16T11:18:52;16.40;99.90
3788;DHT22;1909;53.046;8.276;2022-10-16T11:21:23;16.60;99.90
3788;DHT22;1909;53.046;8.276;2022-10-16T11:23:53;16.90;99.90
3788;DHT22;1909;53.046;8.276;2022-10-16T11:26:25;16.90;99.90
3788;DHT22;1909;53.046;8.276;2022-10-16T11:28:54;17.10;99.90
3788;DHT22;1909;53.046;8.276;2022-10-16T11:31:27;17.20;99.90
3788;DHT22;1909;53.046;8.276;2022-10-16T11:34:01;17.10;99.90
3788;DHT22;1909;53.046;8.276;2022-10-16T11:36:35;17.10;99.90
3788;DHT22;1909;53.046;8.276;2022-10-16T11:39:12;17.10;99.90
3788;DHT22;1909;53.046;8.276;2022-10-16T11:41:47;17.10;99.90
3788;DHT22;1909;53.046;8.276;2022-10-16T11:44:27;16.90;99.90
3788;DHT22;1909;53.046;8.276;2022-10-16T11:47:05;17.10;99.90
3788;DHT22;1909;53.046;8.276;2022-10-16T11:49:34;17.10;99.90
3788;DHT22;1909;53.046;8.276;2022-10-16T11:52:08;17.30;99.90
3788;DHT22;1909;53.046;8.276;2022-10-16T11:54:44;17.20;99.90
3788;DHT22;1909;53.046;8.276;2022-10-16T11:57:14;16.90;99.90
3788;DHT22;1909;53.046;8.276;2022-10-16T11:59:45;17.10;99.90
3788;DHT22;1909;53.046;8.276;2022-10-16T12:02:30;16.90;99.90
3788;DHT22;1909;53.046;8.276;2022-10-16T12:05:06;17.20;99.90
3788;DHT22;1909;53.046;8.276;2022-10-16T12:07:41;17.30;99.90
3788;DHT22;1909;53.046;8.276;2022-10-16T12:10:10;17.40;99.90
3788;DHT22;1909;53.046;8.276;2022-10-16T12:12:43;17.90;99.90
3788;DHT22;1909;53.046;8.276;2022-10-16T12:15:22;17.40;99.90
3788;DHT22;1909;53.046;8.276;2022-10-16T12:17:50;17.50;99.90
3788;DHT22;1909;53.046;8.276;2022-10-16T12:20:23;17.40;99.90
3788;DHT22;1909;53.046;8.276;2022-10-16T12:22:54;17.50;99.90
3788;DHT22;1909;53.046;8.276;2022-10-16T12:25:23;17.60;99.90
3788;DHT22;1909;53.046;8.276;2022-10-16T12:27:59;17.60;99.90
3788;DHT22;1909;53.046;8.276;2022-10-16T12:30:28;17.50;99.90
3788;DHT22;1909;53.046;8.276;2022-10-16T12:32:56;17.40;99.90
3788;DHT22;1909;53.046;8.276;2022-10-16T12:35:27;17.30;99.90
3788;DHT22;1909;53.046;8.276;2022-10-16T12:38:05;17.50;99.90
3788;DHT22;1909;53.046;8.276;2022-10-16T12:40:34;17.30;99.90
3788;DHT22;1909;53.046;8.276;2022-10-16T12:43:12;17.20;99.90
3788;DHT22;1909;53.046;8.276;2022-10-16T12:45:39;18.40;99.90
3788;DHT22;1909;53.046;8.276;2022-10-16T12:48:20;17.10;99.90
3788;DHT22;1909;53.046;8.276;2022-10-16T12:50:47;17.20;99.90
3788;DHT22;1909;53.046;8.276;2022-10-16T12:53:20;17.30;99.90
3788;DHT22;1909;53.046;8.276;2022-10-16T12:55:55;17.50;99.90
3788;DHT22;1909;53.046;8.276;2022-10-16T12:58:39;17.50;99.90
3788;DHT22;1909;53.046;8.276;2022-10-16T13:01:12;17.60;99.90
3788;DHT22;1909;53.046;8.276;2022-10-16T13:06:48;17.60;99.90
3788;DHT22;1909;53.046;8.276;2022-10-16T13:09:28;17.30;99.90
3788;DHT22;1909;53.046;8.276;2022-10-16T13:12:12;17.40;99.90
3788;DHT22;1909;53.046;8.276;2022-10-16T13:15:02;17.50;99.90
3788;DHT22;1909;53.046;8.276;2022-10-16T13:17:39;17.60;99.90
3788;DHT22;1909;53.046;8.276;2022-10-16T13:20:16;17.70;99.90
3788;DHT22;1909;53.046;8.276;2022-10-16T13:22:51;17.80;99.90
3788;DHT22;1909;53.046;8.276;2022-10-16T13:25:29;17.90;99.90
3788;DHT22;1909;53.046;8.276;2022-10-16T13:28:00;18.30;99.90
3788;DHT22;1909;53.046;8.276;2022-10-16T13:30:29;17.90;99.90
3788;DHT22;1909;53.046;8.276;2022-10-16T13:32:59;17.90;99.90
3788;DHT22;1909;53.046;8.276;2022-10-16T13:35:28;17.90;99.90
3788;DHT22;1909;53.046;8.276;2022-10-16T13:38:19;18.10;99.90
3788;DHT22;1909;53.046;8.276;2022-10-16T13:40:53;18.00;99.90
3788;DHT22;1909;53.046;8.276;2022-10-16T13:43:23;18.00;99.90
3788;DHT22;1909;53.046;8.276;2022-10-16T13:45:55;17.90;99.90
3788;DHT22;1909;53.046;8.276;2022-10-16T13:48:22;17.80;99.90
3788;DHT22;1909;53.046;8.276;2022-10-16T13:51:03;17.70;99.90
3788;DHT22;1909;53.046;8.276;2022-10-16T13:53:31;17.60;99.90
3788;DHT22;1909;53.046;8.276;2022-10-16T13:56:00;17.40;99.90
3788;DHT22;1909;53.046;8.276;2022-10-16T13:58:28;17.40;99.90
3788;DHT22;1909;53.046;8.276;2022-10-16T14:00:56;17.60;99.90
3788;DHT22;1909;53.046;8.276;2022-10-16T14:03:25;17.60;99.90
3788;DHT22;1909;53.046;8.276;2022-10-16T14:05:53;17.60;99.90
3788;DHT22;1909;53.046;8.276;2022-10-16T14:08:21;17.80;99.90
3788;DHT22;1909;53.046;8.276;2022-10-16T14:10:50;18.00;99.90
3788;DHT22;1909;53.046;8.276;2022-10-16T14:13:23;17.90;99.90
3788;DHT22;1909;53.046;8.276;2022-10-16T14:15:53;18.00;99.90
3788;DHT22;1909;53.046;8.276;2022-10-16T14:18:25;17.90;99.90
3788;DHT22;1909;53.046;8.276;2022-10-16T14:20:53;17.80;99.90
3788;DHT22;1909;53.046;8.276;2022-10-16T14:23:22;17.70;99.90
3788;DHT22;1909;53.046;8.276;2022-10-16T14:25:51;17.70;99.90
3788;DHT22;1909;53.046;8.276;2022-10-16T14:28:21;17.80;99.90
3788;DHT22;1909;53.046;8.276;2022-10-16T14:30:53;17.80;99.90
3788;DHT22;1909;53.046;8.276;2022-10-16T14:33:23;18.70;99.90
3788;DHT22;1909;53.046;8.276;2022-10-16T14:36:02;17.70;99.90
3788;DHT22;1909;53.046;8.276;2022-10-16T14:38:30;17.80;99.90
3788;DHT22;1909;53.046;8.276;2022-10-16T14:40:59;17.70;99.90
3788;DHT22;1909;53.046;8.276;2022-10-16T14:43:32;17.60;99.90
3788;DHT22;1909;53.046;8.276;2022-10-16T14:46:00;17.70;99.90
3788;DHT22;1909;53.046;8.276;2022-10-16T14:48:28;17.70;99.90
3788;DHT22;1909;53.046;8.276;2022-10-16T14:50:55;17.90;99.90
3788;DHT22;1909;53.046;8.276;2022-10-16T14:53:22;17.90;99.90
3788;DHT22;1909;53.046;8.276;2022-10-16T14:55:49;18.80;99.90
3788;DHT22;1909;53.046;8.276;2022-10-16T14:58:17;17.80;99.90
3788;DHT22;1909;53.046;8.276;2022-10-16T15:00:47;17.70;99.90
3788;DHT22;1909;53.046;8.276;2022-10-16T15:03:14;17.60;99.90
3788;DHT22;1909;53.046;8.276;2022-10-16T15:05:41;17.60;99.90
3788;DHT22;1909;53.046;8.276;2022-10-16T15:08:07;17.60;99.90
3788;DHT22;1909;53.046;8.276;2022-10-16T15:10:38;17.60;99.90
3788;DHT22;1909;53.046;8.276;2022-10-16T15:13:06;17.70;99.90
3788;DHT22;1909;53.046;8.276;2022-10-16T15:15:35;17.60;99.90
3788;DHT22;1909;53.046;8.276;2022-10-16T15:18:04;17.70;99.90
3788;DHT22;1909;53.046;8.276;2022-10-16T15:20:32;18.20;99.90
3788;DHT22;1909;53.046;8.276;2022-10-16T15:23:00;17.50;99.90
3788;DHT22;1909;53.046;8.276;2022-10-16T15:25:33;17.60;99.90
3788;DHT22;1909;53.046;8.276;2022-10-16T15:28:02;17.70;99.90
3788;DHT22;1909;53.046;8.276;2022-10-16T15:30:29;17.70;99.90
3788;DHT22;1909;53.046;8.276;2022-10-16T15:32:56;17.60;99.90
3788;DHT22;1909;53.046;8.276;2022-10-16T15:35:24;17.50;99.90
3788;DHT22;1909;53.046;8.276;2022-10-16T15:37:51;17.50;99.90
3788;DHT22;1909;53.046;8.276;2022-10-16T15:40:18;17.40;99.90
3788;DHT22;1909;53.046;8.276;2022-10-16T15:42:46;17.40;99.90
3788;DHT22;1909;53.046;8.276;2022-10-16T15:45:13;17.50;99.90
3788;DHT22;1909;53.046;8.276;2022-10-16T15:47:41;17.40;99.90
3788;DHT22;1909;53.046;8.276;2022-10-16T15:50:10;17.40;99.90
3788;DHT22;1909;53.046;8.276;2022-10-16T15:52:38;17.40;99.90
3788;DHT22;1909;53.046;8.276;2022-10-16T15:55:06;17.30;99.90
3788;DHT22;1909;53.046;8.276;2022-10-16T15:57:33;17.50;99.90
3788;DHT22;1909;53.046;8.276;2022-10-16T16:00:00;17.60;99.90
3788;DHT22;1909;53.046;8.276;2022-10-16T16:02:27;17.50;99.90
3788;DHT22;1909;53.046;8.276;2022-10-16T16:04:53;17.40;99.90
3788;DHT22;1909;53.046;8.276;2022-10-16T16:07:20;17.40;99.90
3788;DHT22;1909;53.046;8.276;2022-10-16T16:09:48;17.40;99.90
3788;DHT22;1909;53.046;8.276;2022-10-16T16:12:15;17.50;99.90
3788;DHT22;1909;53.046;8.276;2022-10-16T16:14:41;17.50;99.90
3788;DHT22;1909;53.046;8.276;2022-10-16T16:17:11;18.30;99.90
3788;DHT22;1909;53.046;8.276;2022-10-16T16:19:38;17.50;99.90
3788;DHT22;1909;53.046;8.276;2022-10-16T16:22:04;17.30;99.90
3788;DHT22;1909;53.046;8.276;2022-10-16T16:24:31;17.20;99.90
3788;DHT22;1909;53.046;8.276;2022-10-16T16:27:00;17.40;99.90
3788;DHT22;1909;53.046;8.276;2022-10-16T16:29:26;17.30;99.90